Time;durP1;ratioP1;P1;durP2;ratioP2;P2;SDS_P1;SDS_P2;PMS_P1;PMS_P2;Temp;Humidity;BMP_temperature;BMP_pressure;BME280_temperature;BME280_humidity;BME280_pressure;Samples;Min_cycle;Max_cycle;Signal;HPM_P1;HPM_P2
2023/08/14 00:00:58;;;;;;;3.60;2.47;;;24.80;60.60;;;;;;5031468;28;20203;-73
2023/08/14 00:03:24;;;;;;;2.67;2.00;;;24.80;60.60;;;;;;5031474;28;20203;-73
2023/08/14 00:05:50;;;;;;;2.33;2.13;;;24.80;60.60;;;;;;5013959;28;20198;-73
2023/08/14 00:08:15;;;;;;;3.23;2.10;;;24.80;60.50;;;;;;5031450;28;20187;-73
2023/08/14 00:10:41;;;;;;;2.03;1.83;;;24.80;60.60;;;;;;5031271;28;20206;-73
2023/08/14 00:13:07;;;;;;;2.50;2.07;;;24.80;60.60;;;;;;5031687;28;20719;-73
2023/08/14 00:15:32;;;;;;;4.53;2.40;;;24.90;60.60;;;;;;5031381;28;20176;-73
2023/08/14 00:17:58;;;;;;;2.30;2.10;;;24.80;60.40;;;;;;5013634;28;20180;-73
2023/08/14 00:20:24;;;;;;;2.67;2.47;;;24.80;60.50;;;;;;5031514;28;20206;-73
2023/08/14 00:22:49;;;;;;;2.70;2.17;;;24.80;60.50;;;;;;5031321;28;20187;-73
2023/08/14 00:25:15;;;;;;;2.60;2.30;;;24.80;60.50;;;;;;5031248;28;20239;-73
2023/08/14 00:27:40;;;;;;;2.40;2.20;;;24.80;60.50;;;;;;5034312;28;20684;-73
2023/08/14 00:30:06;;;;;;;2.50;2.30;;;24.80;60.50;;;;;;5016749;28;20215;-73
2023/08/14 00:32:32;;;;;;;2.30;2.10;;;24.80;60.50;;;;;;5034708;28;20203;-72
2023/08/14 00:34:58;;;;;;;2.80;2.47;;;24.80;60.50;;;;;;5034738;28;20253;-73
2023/08/14 00:37:39;;;;;;;2.50;2.30;;;24.90;60.60;;;;;;5034625;28;20641;-73
2023/08/14 00:40:07;;;;;;;2.20;2.10;;;24.80;60.40;;;;;;5034600;28;20692;-73
2023/08/14 00:42:32;;;;;;;2.40;2.20;;;24.80;60.50;;;;;;5034442;28;20433;-73
2023/08/14 00:44:58;;;;;;;2.53;2.33;;;24.80;60.50;;;;;;5034530;28;20422;-73
2023/08/14 00:47:24;;;;;;;2.53;2.33;;;24.80;60.40;;;;;;5034478;28;20175;-73
2023/08/14 00:49:50;;;;;;;2.30;2.10;;;24.80;60.40;;;;;;5034602;28;20235;-73
2023/08/14 00:52:15;;;;;;;2.47;2.27;;;24.80;60.40;;;;;;5034344;28;21017;-73
2023/08/14 00:54:41;;;;;;;2.17;1.97;;;24.80;60.40;;;;;;5034370;28;20649;-73
2023/08/14 00:57:07;;;;;;;2.50;2.27;;;24.90;60.50;;;;;;5034334;28;20176;-73
2023/08/14 00:59:33;;;;;;;2.93;2.67;;;24.90;60.50;;;;;;5034093;28;20494;-73
2023/08/14 01:01:59;;;;;;;2.00;1.87;;;24.80;60.40;;;;;;5034224;28;20649;-73
2023/08/14 01:04:25;;;;;;;3.13;2.13;;;24.90;60.60;;;;;;5016348;28;20423;-73
2023/08/14 01:06:51;;;;;;;2.40;2.20;;;24.80;60.40;;;;;;5034106;28;20415;-73
2023/08/14 01:09:16;;;;;;;2.27;2.07;;;24.80;60.40;;;;;;5033989;28;20180;-73
2023/08/14 01:12:30;;;;;;;2.60;2.40;;;24.80;60.50;;;;;;5034043;28;20206;-73
2023/08/14 01:15:01;;;;;;;2.07;1.97;;;24.80;60.40;;;;;;4999380;28;20195;-73
2023/08/14 01:17:31;;;;;;;2.50;2.30;;;24.80;60.40;;;;;;5033912;28;20461;-73
2023/08/14 01:19:57;;;;;;;2.00;1.90;;;24.80;60.40;;;;;;5033742;28;20426;-73
2023/08/14 01:22:38;;;;;;;2.20;2.00;;;24.80;60.60;;;;;;5016204;28;20440;-73
2023/08/14 01:25:04;;;;;;;2.30;2.10;;;24.80;60.40;;;;;;5033815;28;20400;-73
2023/08/14 01:27:30;;;;;;;2.30;2.07;;;24.80;60.40;;;;;;5033699;28;20406;-73
2023/08/14 01:29:59;;;;;;;2.30;2.10;;;24.80;60.40;;;;;;5033454;28;20227;-73
2023/08/14 01:32:25;;;;;;;2.10;1.80;;;24.80;60.40;;;;;;5033561;28;20465;-73
2023/08/14 01:34:52;;;;;;;2.20;1.70;;;24.80;60.40;;;;;;5033571;28;20464;-73
2023/08/14 01:37:23;;;;;;;2.77;2.10;;;24.80;60.40;;;;;;5033114;28;20421;-73
2023/08/14 01:39:55;;;;;;;2.07;1.87;;;24.80;60.30;;;;;;5015528;28;20443;-73
2023/08/14 01:42:35;;;;;;;2.33;2.13;;;24.80;60.30;;;;;;5033762;28;20394;-73
2023/08/14 01:45:07;;;;;;;2.53;2.07;;;24.80;60.40;;;;;;5016967;28;20493;-73
2023/08/14 01:47:34;;;;;;;2.10;1.90;;;24.80;60.40;;;;;;5033366;28;20772;-73
2023/08/14 01:50:01;;;;;;;1.93;1.83;;;24.80;60.40;;;;;;5015656;28;20434;-73
2023/08/14 01:52:27;;;;;;;2.20;1.93;;;24.80;60.40;;;;;;5033153;28;20548;-73
2023/08/14 01:54:53;;;;;;;2.30;2.10;;;24.80;60.40;;;;;;5033179;28;20498;-73
2023/08/14 01:57:18;;;;;;;2.10;1.90;;;24.80;60.40;;;;;;5033441;28;20460;-73
2023/08/14 01:59:46;;;;;;;2.40;2.00;;;24.80;60.40;;;;;;5033037;28;20665;-72
2023/08/14 02:02:13;;;;;;;2.30;2.10;;;24.80;60.40;;;;;;5033039;28;20178;-73
2023/08/14 02:04:39;;;;;;;2.83;2.33;;;24.80;60.30;;;;;;5033000;28;20915;-72
2023/08/14 02:07:05;;;;;;;1.83;1.73;;;24.80;60.30;;;;;;5032962;28;20414;-73
2023/08/14 02:09:32;;;;;;;2.60;2.40;;;24.80;60.30;;;;;;5015068;28;20442;-73
2023/08/14 02:11:59;;;;;;;2.80;2.20;;;24.90;60.40;;;;;;5033070;28;20508;-73
2023/08/14 02:14:24;;;;;;;2.00;1.80;;;24.80;60.30;;;;;;5032875;28;20409;-73
2023/08/14 02:16:50;;;;;;;2.10;1.90;;;24.80;60.40;;;;;;5032761;28;20489;-73
2023/08/14 02:19:16;;;;;;;2.10;1.90;;;24.80;60.30;;;;;;5032665;28;20172;-73
2023/08/14 02:21:41;;;;;;;2.37;2.17;;;24.80;60.30;;;;;;5015243;28;20207;-73
2023/08/14 02:24:07;;;;;;;2.50;1.90;;;24.80;60.30;;;;;;5032650;28;20649;-73
2023/08/14 02:26:33;;;;;;;2.07;1.87;;;24.80;60.30;;;;;;5032868;28;20557;-73
2023/08/14 02:28:59;;;;;;;2.13;1.83;;;24.80;60.30;;;;;;5014822;28;20510;-72
2023/08/14 02:31:24;;;;;;;1.87;1.77;;;24.80;60.30;;;;;;5032315;28;20238;-73
2023/08/14 02:33:50;;;;;;;2.33;2.13;;;24.80;60.30;;;;;;5032449;28;20250;-73
2023/08/14 02:36:15;;;;;;;2.60;2.40;;;24.80;60.30;;;;;;5032471;28;20168;-73
2023/08/14 02:38:41;;;;;;;2.10;1.90;;;24.80;60.30;;;;;;5032444;28;20194;-73
2023/08/14 02:41:07;;;;;;;2.30;2.10;;;24.80;60.30;;;;;;5032375;28;20268;-73
2023/08/14 02:43:32;;;;;;;2.67;1.67;;;24.80;60.20;;;;;;5032380;28;20168;-73
2023/08/14 02:45:58;;;;;;;2.00;1.80;;;24.80;60.30;;;;;;5014589;28;20758;-73
2023/08/14 02:48:24;;;;;;;2.20;2.03;;;24.90;60.30;;;;;;5031741;28;20260;-73
2023/08/14 02:50:49;;;;;;;2.70;2.50;;;24.80;60.30;;;;;;5032084;28;20234;-73
2023/08/14 02:53:15;;;;;;;2.00;1.80;;;24.80;60.20;;;;;;5014399;28;20266;-73
2023/08/14 02:55:40;;;;;;;2.40;1.90;;;24.90;60.30;;;;;;5032188;28;20176;-73
2023/08/14 02:58:06;;;;;;;1.97;1.77;;;24.80;60.20;;;;;;5032106;28;20176;-73
2023/08/14 03:00:32;;;;;;;2.00;1.80;;;24.80;60.20;;;;;;5014259;28;20579;-72
2023/08/14 03:02:57;;;;;;;2.17;1.97;;;24.80;60.20;;;;;;5032318;28;20172;-73
2023/08/14 03:05:23;;;;;;;2.13;1.80;;;24.80;60.20;;;;;;5032042;28;20172;-73
2023/08/14 03:07:48;;;;;;;2.50;2.30;;;24.80;60.20;;;;;;5014271;28;20176;-73
2023/08/14 03:10:14;;;;;;;2.53;2.33;;;24.80;60.20;;;;;;5031932;28;20409;-73
2023/08/14 03:12:39;;;;;;;2.40;2.00;;;24.80;60.20;;;;;;5031858;28;20564;-73
2023/08/14 03:15:06;;;;;;;2.40;2.20;;;24.80;60.20;;;;;;5032002;28;20652;-73
2023/08/14 03:17:31;;;;;;;2.23;2.03;;;24.90;60.30;;;;;;5032185;28;20187;-73
2023/08/14 03:19:57;;;;;;;2.20;2.00;;;24.80;60.20;;;;;;5031705;28;20797;-73
2023/08/14 03:22:23;;;;;;;1.83;1.73;;;24.80;60.20;;;;;;5031918;28;20668;-73
2023/08/14 03:24:48;;;;;;;2.20;2.00;;;24.80;60.20;;;;;;5031856;28;20179;-73
2023/08/14 03:27:14;;;;;;;1.90;1.80;;;24.80;60.20;;;;;;5031859;28;20178;-73
2023/08/14 03:29:40;;;;;;;1.77;1.67;;;24.80;60.10;;;;;;5031708;28;20211;-73
2023/08/14 03:32:05;;;;;;;2.33;2.10;;;24.80;60.20;;;;;;5031715;28;20286;-73
2023/08/14 03:34:31;;;;;;;2.20;2.00;;;24.80;60.10;;;;;;5031767;28;20195;-73
2023/08/14 03:36:56;;;;;;;1.70;1.60;;;24.80;60.20;;;;;;5013923;28;20206;-73
2023/08/14 03:39:22;;;;;;;2.43;2.23;;;24.80;61.00;;;;;;5013899;28;20176;-73
2023/08/14 03:41:48;;;;;;;1.90;1.80;;;24.80;60.10;;;;;;5031716;28;20195;-73
2023/08/14 03:44:13;;;;;;;2.60;2.10;;;24.80;60.10;;;;;;5031702;28;20176;-73
2023/08/14 03:46:39;;;;;;;1.90;1.70;;;24.80;60.10;;;;;;5031673;28;20183;-73
2023/08/14 03:49:05;;;;;;;2.20;1.70;;;24.80;60.10;;;;;;5031633;28;20664;-73
2023/08/14 03:51:31;;;;;;;2.03;1.73;;;24.80;60.10;;;;;;5031670;28;20207;-73
2023/08/14 03:53:56;;;;;;;2.30;2.10;;;24.80;60.10;;;;;;5031614;28;20645;-73
2023/08/14 03:56:22;;;;;;;2.23;2.03;;;24.80;60.10;;;;;;5031539;28;20415;-73
2023/08/14 03:58:47;;;;;;;2.20;2.00;;;24.80;60.10;;;;;;5031513;28;20645;-71
2023/08/14 04:01:13;;;;;;;1.80;1.70;;;24.80;60.10;;;;;;5033968;28;20209;-73
2023/08/14 04:03:39;;;;;;;1.87;1.77;;;24.90;60.20;;;;;;5035306;28;20241;-73
2023/08/14 04:06:04;;;;;;;2.03;1.87;;;24.80;60.20;;;;;;5035289;28;20190;-73
2023/08/14 04:08:30;;;;;;;2.20;2.00;;;24.80;60.10;;;;;;5017442;28;20179;-73
2023/08/14 04:10:59;;;;;;;2.57;1.97;;;24.80;60.10;;;;;;5017296;28;20211;-73
2023/08/14 04:13:28;;;;;;;2.80;2.60;;;24.80;60.10;;;;;;5035139;28;20214;-73
2023/08/14 04:15:59;;;;;;;1.87;1.67;;;24.80;60.10;;;;;;5035125;28;20414;-73
2023/08/14 04:18:26;;;;;;;2.30;2.10;;;24.80;60.10;;;;;;5035052;28;20390;-73
2023/08/14 04:20:52;;;;;;;2.07;1.97;;;24.80;60.10;;;;;;5034914;28;20438;-72
2023/08/14 04:23:17;;;;;;;2.50;2.30;;;24.80;60.20;;;;;;5017213;28;20437;-72
2023/08/14 04:25:43;;;;;;;2.70;2.20;;;24.80;60.10;;;;;;5035128;28;20194;-73
2023/08/14 04:28:09;;;;;;;2.27;1.80;;;24.80;60.10;;;;;;5034836;28;20587;-73
2023/08/14 04:30:34;;;;;;;2.23;2.03;;;24.80;60.10;;;;;;5034514;28;20268;-73
2023/08/14 04:33:00;;;;;;;2.27;2.07;;;24.80;60.10;;;;;;5034779;28;20175;-73
2023/08/14 04:35:25;;;;;;;2.10;1.90;;;24.80;60.00;;;;;;5016981;28;20183;-73
2023/08/14 04:37:51;;;;;;;2.20;1.90;;;24.80;60.10;;;;;;5034680;28;20176;-73
2023/08/14 04:40:17;;;;;;;2.00;1.80;;;24.90;61.00;;;;;;5034801;28;20758;-73
2023/08/14 04:42:42;;;;;;;2.50;2.30;;;24.80;60.10;;;;;;5034518;28;20206;-73
2023/08/14 04:45:09;;;;;;;2.20;2.00;;;24.80;60.00;;;;;;5034782;28;20187;-72
2023/08/14 04:47:34;;;;;;;2.20;2.00;;;24.80;60.10;;;;;;5034526;28;20923;-73
2023/08/14 04:50:00;;;;;;;3.03;1.93;;;24.80;60.00;;;;;;5034319;28;20528;-72
2023/08/14 04:52:25;;;;;;;2.10;1.90;;;24.90;60.20;;;;;;5034222;28;20203;-73
2023/08/14 04:54:51;;;;;;;2.30;1.80;;;24.90;60.20;;;;;;5034399;28;20225;-72
2023/08/14 04:57:16;;;;;;;2.50;2.30;;;24.80;60.10;;;;;;5034297;28;20676;-72
2023/08/14 04:59:42;;;;;;;2.90;1.67;;;24.80;60.20;;;;;;5034163;28;20278;-73
2023/08/14 05:02:08;;;;;;;2.17;2.00;;;24.80;60.10;;;;;;5034521;28;20186;-72
2023/08/14 05:04:33;;;;;;;1.63;1.50;;;24.80;60.10;;;;;;5034171;28;20211;-73
2023/08/14 05:06:59;;;;;;;2.17;1.97;;;24.80;60.10;;;;;;5034167;28;20179;-72
2023/08/14 05:09:24;;;;;;;1.67;1.57;;;24.80;60.10;;;;;;5034004;28;20218;-73
2023/08/14 05:11:50;;;;;;;2.53;2.13;;;24.80;60.00;;;;;;5015399;28;20199;-73
2023/08/14 05:14:18;;;;;;;1.97;1.87;;;24.80;60.00;;;;;;5034054;28;20222;-73
2023/08/14 05:16:45;;;;;;;2.10;1.90;;;24.80;60.00;;;;;;5034213;28;20258;-73
2023/08/14 05:19:10;;;;;;;2.83;1.93;;;24.80;60.00;;;;;;5033843;28;20472;-73
2023/08/14 05:21:36;;;;;;;1.83;1.73;;;24.80;60.00;;;;;;5033902;28;20415;-73
2023/08/14 05:24:02;;;;;;;1.63;1.53;;;24.80;60.10;;;;;;5033822;28;20260;-73
2023/08/14 05:26:27;;;;;;;3.47;2.83;;;24.90;60.90;;;;;;5033780;28;20184;-73
2023/08/14 05:28:53;;;;;;;2.17;1.80;;;24.90;60.10;;;;;;5033757;28;20187;-72
2023/08/14 05:31:18;;;;;;;2.30;1.73;;;24.80;60.00;;;;;;5033486;28;20215;-73
2023/08/14 05:33:44;;;;;;;1.70;1.60;;;24.80;60.00;;;;;;5033712;28;20183;-73
2023/08/14 05:36:10;;;;;;;1.60;1.50;;;24.80;60.00;;;;;;5033660;28;20613;-73
2023/08/14 05:38:35;;;;;;;1.63;1.53;;;24.80;60.00;;;;;;5033591;28;20168;-73
2023/08/14 05:41:01;;;;;;;2.03;1.63;;;24.90;60.10;;;;;;5033406;28;20570;-72
2023/08/14 05:43:26;;;;;;;2.10;1.90;;;24.80;60.00;;;;;;5033499;28;20207;-73
2023/08/14 05:45:52;;;;;;;2.40;2.20;;;24.90;60.20;;;;;;5033702;28;20738;-73
2023/08/14 05:48:17;;;;;;;1.93;1.73;;;24.80;60.00;;;;;;5033376;28;20182;-72
2023/08/14 05:50:43;;;;;;;2.20;2.00;;;24.80;60.00;;;;;;5033181;28;20196;-73
2023/08/14 05:53:09;;;;;;;2.10;1.90;;;24.80;60.10;;;;;;5033280;28;20172;-73
2023/08/14 05:55:37;;;;;;;1.93;1.80;;;24.80;60.00;;;;;;5033178;28;20266;-72
2023/08/14 05:58:03;;;;;;;2.20;1.93;;;24.80;60.00;;;;;;5015165;28;20422;-73
2023/08/14 06:00:32;;;;;;;2.50;2.30;;;24.90;60.20;;;;;;5032861;28;20448;-73
2023/08/14 06:02:58;;;;;;;1.47;1.27;;;24.80;60.10;;;;;;5033272;28;20426;-73
2023/08/14 06:05:24;;;;;;;1.80;1.70;;;24.90;60.20;;;;;;5033056;28;20968;-73
2023/08/14 06:07:51;;;;;;;2.00;1.90;;;24.80;60.00;;;;;;5032717;28;20500;-73
2023/08/14 06:10:17;;;;;;;1.80;1.60;;;24.80;60.00;;;;;;5032799;28;20553;-73
2023/08/14 06:12:44;;;;;;;1.67;1.57;;;24.80;60.10;;;;;;5029946;28;20449;-73
2023/08/14 06:15:10;;;;;;;1.80;1.60;;;24.80;60.10;;;;;;5032789;28;20414;-73
2023/08/14 06:17:36;;;;;;;2.13;1.53;;;24.90;60.20;;;;;;5032788;28;20801;-73
2023/08/14 06:20:03;;;;;;;1.83;1.63;;;24.80;60.00;;;;;;5032493;28;20533;-73
2023/08/14 06:22:28;;;;;;;1.70;1.60;;;24.90;60.20;;;;;;5032537;28;20172;-71
2023/08/14 06:24:55;;;;;;;1.93;1.73;;;24.80;60.00;;;;;;5032385;28;20859;-74
2023/08/14 06:27:20;;;;;;;2.30;1.70;;;24.90;60.20;;;;;;5032431;28;20218;-73
2023/08/14 06:29:47;;;;;;;1.60;1.50;;;24.80;60.10;;;;;;5032135;28;20501;-73
2023/08/14 06:32:12;;;;;;;1.97;1.70;;;24.90;60.20;;;;;;5032209;28;20274;-72
2023/08/14 06:34:38;;;;;;;1.90;1.60;;;24.90;60.20;;;;;;5032030;28;20510;-72
2023/08/14 06:37:04;;;;;;;1.90;1.80;;;24.80;60.10;;;;;;5032304;28;20178;-73
2023/08/14 06:39:30;;;;;;;2.00;1.80;;;24.90;60.30;;;;;;5031989;28;20266;-72
2023/08/14 06:41:56;;;;;;;1.60;1.40;;;24.90;60.30;;;;;;5032097;28;20441;-73
2023/08/14 06:44:21;;;;;;;2.60;2.40;;;24.90;60.30;;;;;;5032169;28;20438;-73
2023/08/14 06:46:47;;;;;;;5.03;1.83;;;24.90;60.30;;;;;;5031318;28;20263;-74
2023/08/14 06:49:13;;;;;;;2.07;1.80;;;24.90;60.30;;;;;;5031908;28;20754;-72
2023/08/14 06:51:38;;;;;;;2.30;2.10;;;24.90;60.40;;;;;;5032081;28;20687;-73
2023/08/14 06:54:08;;;;;;;2.20;2.00;;;24.90;60.40;;;;;;5032033;28;20273;-73
2023/08/14 06:56:34;;;;;;;1.83;1.70;;;24.90;60.30;;;;;;5014379;28;20627;-73
2023/08/14 06:58:59;;;;;;;1.77;1.67;;;24.90;60.60;;;;;;5032043;28;20777;-74
2023/08/14 07:01:25;;;;;;;2.40;1.93;;;24.90;60.20;;;;;;5031954;28;20195;-73
2023/08/14 07:03:51;;;;;;;3.17;2.00;;;24.90;60.20;;;;;;5031970;28;20171;-73
2023/08/14 07:06:16;;;;;;;2.00;1.80;;;24.90;60.30;;;;;;5031990;28;20214;-73
2023/08/14 07:08:42;;;;;;;2.23;1.80;;;24.90;60.30;;;;;;5031898;28;20403;-73
2023/08/14 07:11:08;;;;;;;2.60;1.93;;;24.90;60.40;;;;;;5031211;28;20620;-73
2023/08/14 07:13:33;;;;;;;2.27;1.90;;;24.90;60.40;;;;;;5031872;28;20195;-73
2023/08/14 07:15:59;;;;;;;3.10;1.90;;;24.90;60.40;;;;;;5031949;28;20187;-73
2023/08/14 07:18:25;;;;;;;2.73;2.13;;;24.90;60.40;;;;;;5031841;28;20207;-74
2023/08/14 07:21:08;;;;;;;2.63;2.30;;;24.90;60.40;;;;;;5031761;28;20230;-73
2023/08/14 07:23:36;;;;;;;2.33;2.03;;;24.90;60.40;;;;;;5031906;28;20649;-73
2023/08/14 07:26:11;;;;;;;2.50;1.73;;;24.90;60.40;;;;;;5014143;28;20418;-74
2023/08/14 07:28:38;;;;;;;2.67;1.90;;;24.90;60.40;;;;;;5031903;28;20915;-73
2023/08/14 07:31:04;;;;;;;2.87;2.07;;;24.90;60.40;;;;;;5031464;28;20519;-74
2023/08/14 07:33:30;;;;;;;2.57;2.10;;;24.90;60.40;;;;;;5030732;28;20963;-73
2023/08/14 07:35:57;;;;;;;3.00;2.13;;;24.90;60.50;;;;;;5033954;28;20172;-73
2023/08/14 07:38:23;;;;;;;2.43;2.23;;;24.90;60.70;;;;;;5035713;28;20167;-74
2023/08/14 07:40:48;;;;;;;2.63;2.17;;;24.90;60.50;;;;;;5035461;28;20437;-73
2023/08/14 07:43:14;;;;;;;2.50;2.30;;;24.90;60.60;;;;;;5033584;28;20190;-73
2023/08/14 07:45:39;;;;;;;3.40;2.50;;;24.90;60.60;;;;;;5035218;28;20211;-74
2023/08/14 07:48:05;;;;;;;2.60;2.00;;;24.90;60.60;;;;;;5035476;28;20542;-74
2023/08/14 07:50:31;;;;;;;3.00;2.17;;;24.90;60.70;;;;;;5035350;28;20267;-73
2023/08/14 07:52:56;;;;;;;2.50;1.97;;;24.90;60.80;;;;;;5033894;28;20215;-72
2023/08/14 07:55:22;;;;;;;4.90;3.10;;;24.90;60.70;;;;;;5017420;28;20545;-72
2023/08/14 07:57:47;;;;;;;5.87;2.10;;;24.90;60.90;;;;;;5033716;28;20214;-72
2023/08/14 08:00:13;;;;;;;3.63;2.37;;;24.90;60.90;;;;;;5035021;28;20187;-73
2023/08/14 08:02:39;;;;;;;2.80;2.00;;;25.00;61.00;;;;;;5034708;28;20595;-73
2023/08/14 08:05:05;;;;;;;3.40;2.40;;;24.90;60.90;;;;;;5035271;28;20415;-72
2023/08/14 08:07:30;;;;;;;4.37;2.30;;;24.90;60.80;;;;;;5034947;28;20190;-73
2023/08/14 08:09:56;;;;;;;2.47;2.27;;;24.90;60.80;;;;;;5035079;28;20283;-72
2023/08/14 08:12:22;;;;;;;3.13;2.60;;;25.00;61.00;;;;;;5035066;28;20669;-71
2023/08/14 08:14:47;;;;;;;4.17;2.57;;;24.90;60.90;;;;;;5034883;28;20207;-73
2023/08/14 08:17:13;;;;;;;4.03;2.80;;;25.00;61.00;;;;;;5017292;28;20171;-73
2023/08/14 08:19:38;;;;;;;3.43;2.20;;;25.00;61.00;;;;;;5017182;28;20202;-72
2023/08/14 08:22:04;;;;;;;6.20;2.60;;;25.00;61.00;;;;;;5034934;28;20214;-73
2023/08/14 08:24:29;;;;;;;2.33;2.13;;;25.00;61.00;;;;;;5034941;28;20714;-73
2023/08/14 08:26:55;;;;;;;5.17;2.07;;;25.00;61.00;;;;;;5034889;28;20629;-73
2023/08/14 08:29:21;;;;;;;3.50;2.57;;;25.00;61.00;;;;;;5034559;28;20182;-73
2023/08/14 08:31:46;;;;;;;4.17;2.30;;;24.90;60.90;;;;;;5034708;28;20262;-72
2023/08/14 08:34:12;;;;;;;4.00;3.10;;;25.00;61.00;;;;;;5035246;28;20168;-73
2023/08/14 08:36:40;;;;;;;3.17;2.50;;;25.00;61.00;;;;;;5034889;28;20597;-72
2023/08/14 08:39:06;;;;;;;2.60;2.30;;;25.00;61.00;;;;;;5034901;28;20543;-73
2023/08/14 08:41:35;;;;;;;3.83;2.47;;;25.00;61.70;;;;;;5034906;28;20426;-73
2023/08/14 08:44:09;;;;;;;2.50;2.30;;;25.00;60.90;;;;;;5034705;28;20171;-72
2023/08/14 08:46:42;;;;;;;3.80;2.10;;;25.00;60.90;;;;;;5033392;28;20472;-72
2023/08/14 08:49:08;;;;;;;2.93;2.63;;;25.00;61.00;;;;;;5034457;28;20807;-72
2023/08/14 08:51:34;;;;;;;3.43;2.40;;;25.00;61.00;;;;;;5034329;28;20950;-72
2023/08/14 08:54:01;;;;;;;6.17;2.67;;;25.00;61.00;;;;;;5034417;28;20410;-73
2023/08/14 08:56:27;;;;;;;5.60;2.47;;;25.00;60.80;;;;;;5034339;28;20477;-72
2023/08/14 08:58:53;;;;;;;2.37;2.17;;;25.00;60.80;;;;;;5034584;28;20438;-73
2023/08/14 09:01:20;;;;;;;2.90;2.40;;;25.00;60.80;;;;;;5034182;28;20223;-74
2023/08/14 09:03:47;;;;;;;5.13;3.10;;;25.00;60.80;;;;;;5034127;28;20418;-73
2023/08/14 09:06:12;;;;;;;2.87;2.33;;;25.00;61.70;;;;;;5034131;28;20411;-73
2023/08/14 09:08:38;;;;;;;2.70;2.50;;;25.00;60.80;;;;;;5034155;28;20410;-73
2023/08/14 09:11:04;;;;;;;3.07;2.50;;;25.00;60.80;;;;;;5034205;28;20214;-73
2023/08/14 09:13:29;;;;;;;2.87;2.40;;;25.00;60.80;;;;;;5034113;28;20207;-73
2023/08/14 09:15:55;;;;;;;2.53;2.13;;;25.00;60.80;;;;;;5034246;28;20175;-73
2023/08/14 09:18:20;;;;;;;3.73;2.57;;;25.00;60.80;;;;;;5033979;28;20168;-73
2023/08/14 09:20:46;;;;;;;3.70;2.60;;;25.00;60.80;;;;;;5034085;28;20188;-73
2023/08/14 09:23:13;;;;;;;3.10;2.10;;;25.00;60.80;;;;;;5033941;28;20206;-73
2023/08/14 09:25:45;;;;;;;2.43;2.10;;;25.00;60.80;;;;;;5033741;28;20203;-73
2023/08/14 09:28:11;;;;;;;2.90;2.53;;;25.00;60.80;;;;;;5033982;28;20884;-72
2023/08/14 09:30:38;;;;;;;2.67;2.13;;;25.00;60.70;;;;;;5033241;28;20450;-72
2023/08/14 09:33:11;;;;;;;2.93;2.20;;;25.00;60.80;;;;;;5015509;28;20940;-72
2023/08/14 09:35:38;;;;;;;5.40;2.27;;;25.00;60.80;;;;;;5034018;28;20427;-73
2023/08/14 09:38:04;;;;;;;4.30;2.40;;;25.00;60.80;;;;;;5033798;28;20415;-73
2023/08/14 09:40:31;;;;;;;3.73;2.43;;;25.00;60.80;;;;;;5033727;28;20537;-72
2023/08/14 09:42:57;;;;;;;3.10;2.70;;;25.00;60.80;;;;;;5034084;28;20414;-73
2023/08/14 09:45:23;;;;;;;5.00;3.53;;;25.00;60.80;;;;;;5033488;28;20778;-73
2023/08/14 09:47:50;;;;;;;6.87;2.80;;;25.00;60.80;;;;;;5033362;28;20206;-73
2023/08/14 09:50:17;;;;;;;3.47;2.63;;;25.00;60.70;;;;;;5033258;28;20441;-74
2023/08/14 09:52:43;;;;;;;4.13;2.93;;;25.00;60.60;;;;;;5033207;28;20879;-72
2023/08/14 09:55:10;;;;;;;3.37;3.07;;;25.00;60.50;;;;;;5033449;28;20407;-73
2023/08/14 09:57:36;;;;;;;4.40;2.90;;;25.10;60.50;;;;;;5032876;28;20406;-73
2023/08/14 10:00:03;;;;;;;3.47;2.70;;;25.10;60.50;;;;;;5032972;28;20442;-72
2023/08/14 10:02:32;;;;;;;3.50;3.20;;;25.10;60.40;;;;;;5032998;28;20476;-73
2023/08/14 10:05:00;;;;;;;4.20;3.30;;;25.10;60.40;;;;;;5033359;28;20410;-73
2023/08/14 10:07:26;;;;;;;3.60;3.03;;;25.10;60.40;;;;;;5033244;28;20819;-73
2023/08/14 10:09:57;;;;;;;3.37;3.07;;;25.10;60.40;;;;;;5032842;28;20890;-72
2023/08/14 10:12:30;;;;;;;5.87;2.80;;;25.10;60.60;;;;;;5032768;28;20457;-73
2023/08/14 10:15:04;;;;;;;3.17;2.83;;;25.10;60.60;;;;;;5032825;28;20429;-73
2023/08/14 10:17:51;;;;;;;4.37;3.00;;;25.10;60.60;;;;;;5032782;28;20387;-73
2023/08/14 10:20:18;;;;;;;3.23;2.93;;;25.10;60.60;;;;;;5032699;28;20505;-73
2023/08/14 10:22:45;;;;;;;3.33;2.27;;;25.10;60.40;;;;;;5032634;28;20505;-72
2023/08/14 10:25:12;;;;;;;3.80;2.97;;;25.10;60.50;;;;;;5014849;28;20946;-73
2023/08/14 10:27:38;;;;;;;3.83;3.37;;;25.10;60.40;;;;;;5032526;28;20419;-73
2023/08/14 10:30:05;;;;;;;4.47;3.43;;;25.10;60.50;;;;;;5032271;28;21038;-73
2023/08/14 10:32:31;;;;;;;3.13;2.80;;;25.10;60.50;;;;;;5032602;28;20446;-72
2023/08/14 10:34:57;;;;;;;3.90;3.27;;;25.10;60.50;;;;;;5031961;28;20889;-73
2023/08/14 10:37:28;;;;;;;3.80;3.20;;;25.10;60.50;;;;;;5032296;28;20407;-72
2023/08/14 10:40:13;;;;;;;4.73;3.60;;;25.10;60.60;;;;;;5032255;28;20214;-73
2023/08/14 10:42:43;;;;;;;3.60;2.80;;;25.10;60.70;;;;;;5032249;28;20464;-72
2023/08/14 10:45:09;;;;;;;5.20;4.10;;;25.10;60.80;;;;;;5014069;28;20422;-74
2023/08/14 10:47:38;;;;;;;5.50;3.43;;;25.10;60.80;;;;;;5031867;28;20833;-73
2023/08/14 10:50:25;;;;;;;5.30;3.33;;;25.10;60.90;;;;;;5029868;28;20249;-73
2023/08/14 10:52:52;;;;;;;5.80;3.40;;;25.10;60.90;;;;;;5014220;28;20556;-73
2023/08/14 10:55:41;;;;;;;4.73;3.33;;;25.10;60.70;;;;;;5032189;28;20402;-73
2023/08/14 10:58:28;;;;;;;4.10;3.10;;;25.20;61.00;;;;;;5015632;28;20473;-72
2023/08/14 11:00:55;;;;;;;4.10;3.70;;;25.20;61.00;;;;;;5031887;28;20986;-72
2023/08/14 11:03:22;;;;;;;3.57;2.90;;;25.10;60.80;;;;;;5031949;28;20778;-73
2023/08/14 11:05:48;;;;;;;6.57;4.00;;;25.20;61.10;;;;;;5032000;28;20407;-72
2023/08/14 11:08:14;;;;;;;6.93;3.40;;;25.20;60.80;;;;;;5031810;28;20413;-72
2023/08/14 11:10:41;;;;;;;4.70;4.03;;;25.20;61.00;;;;;;5031079;28;20198;-73
2023/08/14 11:13:08;;;;;;;3.77;3.30;;;25.20;61.00;;;;;;5032069;28;20453;-72
2023/08/14 11:15:35;;;;;;;4.90;3.33;;;25.20;60.90;;;;;;5031837;28;20415;-72
2023/08/14 11:18:01;;;;;;;4.03;3.73;;;25.20;60.90;;;;;;5031863;28;20410;-74
2023/08/14 11:20:29;;;;;;;4.33;3.67;;;25.20;60.90;;;;;;5031757;28;20450;-73
2023/08/14 11:22:56;;;;;;;4.43;3.40;;;25.20;60.90;;;;;;5031750;28;20406;-71
2023/08/14 11:25:22;;;;;;;5.10;3.77;;;25.20;60.90;;;;;;5031788;28;20456;-73
2023/08/14 11:27:53;;;;;;;4.20;3.80;;;25.20;60.90;;;;;;5031796;28;20410;-73
2023/08/14 11:30:20;;;;;;;4.97;4.07;;;25.20;61.10;;;;;;5013912;28;20545;-72
2023/08/14 11:32:46;;;;;;;4.07;3.67;;;25.20;60.90;;;;;;5031567;28;20457;-72
2023/08/14 11:35:12;;;;;;;3.83;3.40;;;25.20;61.00;;;;;;5031567;28;20419;-73
2023/08/14 11:37:38;;;;;;;7.90;3.83;;;25.20;60.90;;;;;;5013893;28;20645;-73
2023/08/14 11:40:06;;;;;;;5.33;3.80;;;25.20;60.90;;;;;;5031481;28;20668;-73
2023/08/14 11:42:36;;;;;;;4.13;3.73;;;25.20;61.10;;;;;;5031610;28;20449;-73
2023/08/14 11:45:03;;;;;;;3.57;3.27;;;25.30;61.10;;;;;;5031581;28;20409;-70
2023/08/14 11:47:49;;;;;;;3.97;3.67;;;25.30;61.10;;;;;;5031460;28;20407;-72
2023/08/14 11:50:16;;;;;;;4.10;3.70;;;25.30;61.20;;;;;;5031440;28;20816;-72
2023/08/14 11:52:42;;;;;;;4.07;3.70;;;25.30;61.10;;;;;;5013528;28;20450;-72
2023/08/14 11:55:09;;;;;;;4.50;4.10;;;25.30;61.10;;;;;;5031524;28;20417;-72
2023/08/14 11:57:36;;;;;;;5.13;3.83;;;25.30;61.10;;;;;;5031299;28;20456;-73
2023/08/14 12:00:10;;;;;;;4.23;3.73;;;25.30;61.10;;;;;;5031682;28;20454;-72
2023/08/14 12:02:36;;;;;;;3.70;3.40;;;25.30;61.10;;;;;;5031517;28;20426;-73
2023/08/14 12:05:02;;;;;;;4.37;3.83;;;25.30;61.10;;;;;;5031415;28;20414;-73
2023/08/14 12:07:29;;;;;;;4.20;3.90;;;25.30;61.10;;;;;;5031443;28;20411;-72
2023/08/14 12:09:55;;;;;;;3.60;3.30;;;25.30;61.20;;;;;;5031353;28;20734;-72
2023/08/14 12:12:22;;;;;;;4.27;3.87;;;25.30;61.10;;;;;;5031082;28;20465;-73
2023/08/14 12:14:50;;;;;;;3.67;3.37;;;25.30;61.30;;;;;;5031172;28;20406;-73
2023/08/14 12:17:18;;;;;;;3.93;3.57;;;25.30;61.40;;;;;;5013496;28;20804;-72
2023/08/14 12:19:55;;;;;;;4.40;4.03;;;25.30;61.40;;;;;;5031134;28;20429;-73
2023/08/14 12:22:24;;;;;;;3.90;3.50;;;25.30;61.40;;;;;;5034108;28;21013;-73
2023/08/14 12:24:51;;;;;;;4.27;3.77;;;25.30;61.20;;;;;;5034875;28;20476;-73
2023/08/14 12:27:25;;;;;;;5.00;4.50;;;25.30;61.30;;;;;;5034727;28;20410;-73
2023/08/14 12:29:52;;;;;;;4.30;3.97;;;25.30;61.30;;;;;;5034760;28;20890;-73
2023/08/14 12:32:18;;;;;;;5.13;3.83;;;25.30;61.30;;;;;;5034737;28;20509;-72
2023/08/14 12:34:45;;;;;;;4.57;4.17;;;25.30;61.30;;;;;;5034698;28;20398;-73
2023/08/14 12:37:12;;;;;;;3.30;3.10;;;25.30;62.20;;;;;;5034814;28;20410;-75
2023/08/14 12:39:38;;;;;;;3.97;3.57;;;25.30;61.40;;;;;;5034456;28;20461;-74
2023/08/14 12:42:04;;;;;;;4.50;3.80;;;25.30;61.40;;;;;;5016408;28;20414;-73
2023/08/14 12:44:30;;;;;;;5.27;3.60;;;25.30;61.30;;;;;;5034000;28;20425;-73
2023/08/14 12:46:56;;;;;;;4.23;3.83;;;25.30;61.40;;;;;;5016785;28;20517;-73